tititudorancea.com
Station Historical Data
Daily Summary for January 12, 2018 Units:  Metric    English   Both
« Previous Day
Next Day »
Daily Weekly Monthly Yearly Custom
  High: Low: Average:
Temperature: -17.8 °C 20.3 °C 23.5 °C
Dew Point: -17.8 °C 7.3 °C 12.7 °C
Humidity: Humidity % 29 % 53 %
Wind Speed: 0 km/h 0 km/h 4.5 km/h
Wind Gust: 0 km/h - -
Wind:- - NW
Pressure: 0 hPa 1000.9 hPa -
Precipitation: 4.83 mm    
Historical Graphs
 
 
Ararat weather Find more about Weather in Ararat, AU


 



 


Tabular Data for January 12, 2018
Time Temperature Dew Point Pressure Wind Wind Speed Wind Gust Humidity Rainfall Rate (Hourly)
-17.8 °C -17.8 °C 0 hPa Calm     Humidity % 0 mm
00:02 26.1 °C 8.1 °C 1006 hPa NW 2.6 km/h 5.6 km/h 32 % 0 mm
00:26 26.6 °C 7.6 °C 1005.6 hPa NW 2.4 km/h 5.6 km/h 30 % 0 mm
00:40 26.8 °C 7.3 °C 1005.3 hPa NW 1.3 km/h 3.7 km/h 29 % 0 mm
00:57 26.9 °C 7.3 °C 1005.3 hPa North 3.2 km/h 6.4 km/h 29 % 0 mm
01:05 27.1 °C 7.5 °C 1005.3 hPa NW 3.2 km/h 5.6 km/h 29 % 0 mm
01:37 27.2 °C 7.6 °C 1004.6 hPa NW 2.9 km/h 3.7 km/h 29 % 0 mm
01:55 26.6 °C 7.6 °C 1004.3 hPa NW 1.1 km/h 1.9 km/h 30 % 0 mm
02:02 26.7 °C 7.7 °C 1003.9 hPa North 0.8 km/h 3.7 km/h 30 % 0 mm
02:15 26.9 °C 7.3 °C 1003.6 hPa NW 2.1 km/h 5.6 km/h 29 % 0 mm
02:26 26.8 °C 7.3 °C 1003.6 hPa NW 2.9 km/h 5.6 km/h 29 % 0 mm
02:42 26.3 °C 7.8 °C 1003.3 hPa NW 1.9 km/h 3.2 km/h 31 % 0 mm
02:48 26 °C 7.6 °C 1003.3 hPa NW 4.2 km/h 5.6 km/h 31 % 0 mm
03:02 25.9 °C 7.9 °C 1003.3 hPa NW 0.6 km/h 3.7 km/h 32 % 0 mm
03:10 25.8 °C 7.9 °C 1003.3 hPa North 4.7 km/h 5.6 km/h 32 % 0 mm
03:39 26.7 °C 7.7 °C 1002.9 hPa NW 3.2 km/h 5.6 km/h 30 % 0 mm
03:45 26.9 °C 7.8 °C 1002.9 hPa NNW 4.8 km/h 5.6 km/h 30 % 0 mm
03:57 27.2 °C 8.1 °C 1002.9 hPa NNW 4.8 km/h 6.4 km/h 30 % 0 mm
04:22 26 °C 11.3 °C 1001.9 hPa North 8 km/h 13 km/h 40 % 0 mm
04:34 25.3 °C 11.4 °C 1002.3 hPa North 5.6 km/h 9.3 km/h 42 % 0 mm
05:07 24.7 °C 12.6 °C 1001.9 hPa North 3.2 km/h 5.6 km/h 47 % 0 mm
05:37 24.4 °C 12.7 °C 1001.9 hPa North 2.9 km/h 5.6 km/h 48 % 0 mm
05:43 24.6 °C 12.8 °C 1001.6 hPa Calm   1.9 km/h 48 % 0 mm
05:51 24.5 °C 12.4 °C 1001.6 hPa Calm     47 % 0 mm
05:56 24.4 °C 13.3 °C 1001.9 hPa Calm   3.7 km/h 50 % 0 mm
06:03 24.3 °C 13.2 °C 1001.9 hPa North 5.1 km/h 5.6 km/h 50 % 0 mm
06:21 25.5 °C 13.3 °C 1002.6 hPa NNW 6.9 km/h 12.9 km/h 47 % 0 mm
06:38 24.7 °C 13.9 °C 1002.6 hPa NNW 6.9 km/h 13 km/h 51 % 0 mm
07:01 24.2 °C 14.1 °C 1002.6 hPa North 2.1 km/h 5.6 km/h 53 % 0 mm
07:08 24.2 °C 14 °C 1002.3 hPa NNW 1.9 km/h 5.6 km/h 53 % 0 mm
07:16 24.2 °C 14 °C 1002.3 hPa NNW 2.7 km/h 5.6 km/h 53 % 0 mm
07:25 24.3 °C 14.1 °C 1002.6 hPa North 3.9 km/h 7.4 km/h 53 % 0 mm
07:50 24.3 °C 14.7 °C 1002.9 hPa North 8.2 km/h 16.7 km/h 55 % 0 mm
08:03 24.4 °C 15.6 °C 1002.6 hPa North 6.3 km/h 9.3 km/h 58 % 0 mm
08:09 24 °C 16 °C 1002.3 hPa North 3.7 km/h 9.3 km/h 61 % 0 mm
08:35 23.1 °C 16.4 °C 1002.9 hPa North 6.1 km/h 8 km/h 66 % 0 mm
08:46 23.4 °C 16.2 °C 1002.9 hPa NW 5.6 km/h 14.8 km/h 64 % 0 mm
08:52 23.8 °C 16.1 °C 1002.9 hPa NNW 6.9 km/h 11.1 km/h 62 % 0 mm
08:55 23.8 °C 16.3 °C 1002.9 hPa NNW 4.3 km/h 13 km/h 63 % 0 mm
09:00 23.6 °C 16.4 °C 1002.6 hPa North 9.8 km/h 12.9 km/h 64 % 0 mm
09:29 23.2 °C 16.9 °C 1002.3 hPa WNW 2.1 km/h 6.4 km/h 68 % 0.51 mm
09:33 23.1 °C 16.7 °C 1002.3 hPa WNW 2.7 km/h 5.6 km/h 67 % 0.51 mm
09:44 23.2 °C 17 °C 1002.6 hPa WNW 5 km/h 7.4 km/h 68 % 0.51 mm
10:00 22.8 °C 17.2 °C 1002.6 hPa NW 4.3 km/h 5.6 km/h 71 % 0.76 mm
10:02 22.7 °C 17.2 °C 1002.6 hPa NW 4.2 km/h 5.6 km/h 71 % 0.76 mm
10:11 22.1 °C 18.1 °C 1001.9 hPa NW 4 km/h 7.4 km/h 78 % 1.27 mm
10:31 21.1 °C 18.4 °C 1000.9 hPa NW 2.9 km/h 5.6 km/h 85 % 1.78 mm
10:38 21 °C 18.6 °C 1001.2 hPa NW 6.3 km/h 11.1 km/h 86 % 1.78 mm
10:41 20.9 °C 18.4 °C 1001.6 hPa North 6.9 km/h 11.1 km/h 86 % 1.78 mm
10:44 20.8 °C 18.6 °C 1001.2 hPa North 2.6 km/h 5.6 km/h 87 % 2.03 mm
10:50 20.8 °C 18.6 °C 1001.6 hPa North 4.8 km/h 11.1 km/h 87 % 2.03 mm
10:58 20.8 °C 18.6 °C 1001.6 hPa North 7.7 km/h 11.3 km/h 87 % 2.03 mm
11:04 21 °C 18.4 °C 1002.3 hPa NNW 13.7 km/h 18.5 km/h 85 % 1.52 mm
11:10 21 °C 18.4 °C 1002.3 hPa NNW 13.8 km/h 22.2 km/h 85 % 1.27 mm
11:44 20.3 °C 18.2 °C 1002.6 hPa NNW 9.2 km/h 18.5 km/h 88 % 2.29 mm
11:55 20.3 °C 18.2 °C 1002.3 hPa North 10.5 km/h 16.7 km/h 88 % 2.29 mm
Ararat Weather
Compliments of Weather Underground - 1 mb
Click here to send mail.


ABOUT

Live weather data from Ararat, Victoria, Australia, 3377
Data uploaded from Cumulus every 5 minutes to Weather Underground.
This site then downloads the raw data for formatting and display.
Metric and imperial data can be displayed. Graphs and historical data available.
Includes Sun and Moon times and rain image live from BOM.

Check out Ararat Weather on Facebook, Twitter and Google +

Help support ongoing costs by checking out the ads





Follow @AraratWeather